Pagina principale
METAR-TAF:

METAR-TAF

Aeroporti :

Aeroporto di Cagliari-Elmas

Cagliari, Italia

latitudine: 39-15N, longitudine: 009-04E, altezza: 4 m

Osservazione

Il bollettino è stato emesso 39 minuti fa, alle 10:50 UTC
Vento 6 kt da ovest/nord-ovest, variando fra ovest e nord/nord-ovest
Temperature 21°C
Umidità 64%
Pressione 1019 hPa
Visibilità 10 km o più
nessuna nube inferiore a 1500 m e nessun cumulonembo

METAR: LIEE 261050Z 30006KT 280V340 CAVOK 21/14 Q1019

Ora: 13:29 (11:29 UTC)

Previsione

Il bollettino è stato emesso 6 ore e 29 minuti fa, alle 05:00 UTC
Previsione valida dal 26 alle 06 UTC al 27 alle 06 UTC
Vento 8 kt da nord/nord-ovest
Visibilità 10 km o più
Nubi sparse ad un'altezza di 3000 ft
Evoluzione graduale
dal 26 alle 07 UTC al 26 alle 09 UTC
Vento 10 kt da est/sud-est
Evoluzione graduale
dal 26 alle 16 UTC al 26 alle 18 UTC
Vento 5 kt da direzioni variabili

TAF: LIEE 260500Z 2606/2706 34008KT 9999 SCT030 BECMG 2607/2609 12010KT BECMG 2616/2618 VRB05KT

Osservazioni e previsioni meteorologiche di più di 4000 aeroporti (messaggi METAR e TAF).

Le stazioni disponibili sono rappresentate dai dischi gialli e rossi sulla carta.

Puntare il mouse per vedere il nome della stazione.

Clicca sopra per visualizzare le osservazioni e previsioni meteorologiche.

Per cambiare la mappa : fare clic sui pulsanti verdi con una croce nera per ingrandire, il pulsante verde con un trattino per diminuire, o sulla freccia verde per le mappe adiacenti.


METAR-TAF: